Sikinos — 9HA2865 — position and weather

sailwx.info

Track history (hours):
 
Tides and Currents Weather Stations Pressure Air Temp Water Temp Dewpoint Dewpoint Depression Visibility Wind Speed Wind Dir Waves Ship Positions

Sikinos

Last reported at 2015-May-27 01:13 UTC. Time now 2015-May-27 05:53 UTC.
Position N 51°20' E 003°12'.

Length 90 m; draft 5.4 m.

Type: Ship (hazmat cat A). MMSI: 256462000.

Date/timePositionNaut miles runAvg speedWind from/ knotsBaromVisibWave heightAir tempDewpointWater temp
2015-May-27 01:13N 51°20' E 003°12'3 4.9
2015-May-27 00:33N 51°22' E 003°08'10 9.8
2015-May-26 23:33N 51°22' E 002°52'9 9.2
2015-May-26 22:33N 51°22' E 002°37'1211.0
2015-May-26 21:29N 51°19' E 002°19'1111.9
2015-May-26 20:33N 51°13' E 002°04'3333.2
2015-May-26 19:33N 51°44' E 001°48'4847.6
2015-May-26 18:33N 50°58' E 001°33'1312.2
2015-May-26 17:31N 50°47' E 001°23'1111.3
2015-May-26 16:31N 50°37' E 001°13'  
2015-May-22 01:33N 50°18' W 002°54'1110.9
2015-May-22 00:34N 50°12' W 003°09'1511.3
2015-May-21 23:14N 50°05' W 003°30'0 0.0
2015-May-21 07:04N 50°05' W 003°30'5 9.1
2015-May-21 06:34N 50°07' W 003°24'10 9.9
2015-May-21 05:34N 50°12' W 003°10'1111.4
2015-May-21 04:34N 50°18' W 002°54'29 0.8
2015-May-19 17:33N 50°33' W 002°16'1010.1
2015-May-19 16:33N 50°30' W 002°01'2611.9
2015-May-19 14:21N 50°30' W 001°20'1012.1
2015-May-19 13:33N 50°31' W 001°05'46 6.5
2015-May-19 06:28N 50°34' E 000°08'8 8.9
2015-May-19 05:33N 50°36' E 000°20'10 9.6
2015-May-19 04:33N 50°39' E 000°35'9 9.6
2015-May-19 03:34N 50°44' E 000°47'9 8.8
2015-May-19 02:31N 50°49' E 000°59'15 7.7
2015-May-19 00:34N 50°59' E 001°17'6 6.3
2015-May-18 23:33N 51°03' E 001°25'7 6.9
2015-May-18 22:34N 51°08' E 001°33'9 9.2
2015-May-18 21:34N 51°13' E 001°45'1212.3
2015-May-18 20:34N 51°24' E 001°55'1212.5
2015-May-18 19:34N 51°34' E 002°06'1211.7
2015-May-18 18:31N 51°43' E 002°20'56 6.7
2015-May-18 10:13N 52°04' E 003°44'6 9.7
2015-May-18 09:34N 52°02' E 003°53'9 9.4
2015-May-18 08:34N 51°58' E 004°07'3 2.6
2015-May-18 07:33N 51°57' E 004°11'0 0.0
2015-May-18 06:32N 51°57' E 004°11'0 0.0
2015-May-18 05:32N 51°57' E 004°11'0 0.0
2015-May-18 04:30N 51°57' E 004°11'0 0.0
2015-May-18 03:33N 51°57' E 004°11'0 0.0
2015-May-18 02:32N 51°57' E 004°11'0 0.0
2015-May-18 01:33N 51°57' E 004°11'0 0.0
2015-May-18 00:33N 51°57' E 004°11'0 0.0
2015-May-17 23:32N 51°57' E 004°11'0 0.0
2015-May-17 22:32N 51°57' E 004°11'0 0.0
2015-May-17 21:32N 51°57' E 004°11'0 0.0
2015-May-17 20:33N 51°57' E 004°11'0 0.0
2015-May-17 19:32N 51°57' E 004°11'0 0.0
2015-May-17 18:33N 51°57' E 004°11'0 0.0
2015-May-17 17:32N 51°57' E 004°11'0 0.0
2015-May-17 16:32N 51°57' E 004°11'0 0.0
2015-May-17 15:32N 51°57' E 004°11'0 0.0
2015-May-17 14:32N 51°57' E 004°11'0 0.0
2015-May-17 13:32N 51°57' E 004°11'0 0.0
2015-May-17 12:32N 51°57' E 004°11'0 0.0
2015-May-17 11:32N 51°57' E 004°11'0 0.0
2015-May-17 10:32N 51°57' E 004°11'0 0.0
2015-May-17 09:32N 51°57' E 004°11'0 0.0
2015-May-17 08:29N 51°57' E 004°11'0 0.0
2015-May-17 07:32N 51°57' E 004°11'0 0.0
2015-May-17 06:32N 51°57' E 004°11'0 0.0
2015-May-17 05:32N 51°57' E 004°11'0 0.0
2015-May-17 04:29N 51°57' E 004°11'0 0.0
2015-May-17 03:32N 51°57' E 004°11'0 0.0
2015-May-17 02:32N 51°57' E 004°11'0 0.0
2015-May-17 01:32N 51°57' E 004°11'  
Track history (hours):
 
Tides and Currents Weather Stations Pressure Air Temp Water Temp Dewpoint Dewpoint Depression Visibility Wind Speed Wind Dir Waves Ship Positions

Sikinos

Last reported at 2015-May-27 01:13 UTC. Time now 2015-May-27 05:53 UTC.
Position N 51°20' E 003°12'.

Length 90 m; draft 5.4 m.

Type: Ship (hazmat cat A). MMSI: 256462000.

Date/timePositionNaut miles runAvg speedWind from/ knotsBaromVisibWave heightAir tempDewpointWater temp
2015-May-27 01:13N 51°20' E 003°12'3 4.9
2015-May-27 00:33N 51°22' E 003°08'10 9.8
2015-May-26 23:33N 51°22' E 002°52'9 9.2
2015-May-26 22:33N 51°22' E 002°37'1211.0
2015-May-26 21:29N 51°19' E 002°19'1111.9
2015-May-26 20:33N 51°13' E 002°04'3333.2
2015-May-26 19:33N 51°44' E 001°48'4847.6
2015-May-26 18:33N 50°58' E 001°33'1312.2
2015-May-26 17:31N 50°47' E 001°23'1111.3
2015-May-26 16:31N 50°37' E 001°13'  
2015-May-22 01:33N 50°18' W 002°54'1110.9
2015-May-22 00:34N 50°12' W 003°09'1511.3
2015-May-21 23:14N 50°05' W 003°30'0 0.0
2015-May-21 07:04N 50°05' W 003°30'5 9.1
2015-May-21 06:34N 50°07' W 003°24'10 9.9
2015-May-21 05:34N 50°12' W 003°10'1111.4
2015-May-21 04:34N 50°18' W 002°54'29 0.8
2015-May-19 17:33N 50°33' W 002°16'1010.1
2015-May-19 16:33N 50°30' W 002°01'2611.9
2015-May-19 14:21N 50°30' W 001°20'1012.1
2015-May-19 13:33N 50°31' W 001°05'46 6.5
2015-May-19 06:28N 50°34' E 000°08'8 8.9
2015-May-19 05:33N 50°36' E 000°20'10 9.6
2015-May-19 04:33N 50°39' E 000°35'9 9.6
2015-May-19 03:34N 50°44' E 000°47'9 8.8
2015-May-19 02:31N 50°49' E 000°59'15 7.7
2015-May-19 00:34N 50°59' E 001°17'6 6.3
2015-May-18 23:33N 51°03' E 001°25'7 6.9
2015-May-18 22:34N 51°08' E 001°33'9 9.2
2015-May-18 21:34N 51°13' E 001°45'1212.3
2015-May-18 20:34N 51°24' E 001°55'1212.5
2015-May-18 19:34N 51°34' E 002°06'1211.7
2015-May-18 18:31N 51°43' E 002°20'56 6.7
2015-May-18 10:13N 52°04' E 003°44'6 9.7
2015-May-18 09:34N 52°02' E 003°53'9 9.4
2015-May-18 08:34N 51°58' E 004°07'3 2.6
2015-May-18 07:33N 51°57' E 004°11'0 0.0
2015-May-18 06:32N 51°57' E 004°11'0 0.0
2015-May-18 05:32N 51°57' E 004°11'0 0.0
2015-May-18 04:30N 51°57' E 004°11'0 0.0
2015-May-18 03:33N 51°57' E 004°11'0 0.0
2015-May-18 02:32N 51°57' E 004°11'0 0.0
2015-May-18 01:33N 51°57' E 004°11'0 0.0
2015-May-18 00:33N 51°57' E 004°11'0 0.0
2015-May-17 23:32N 51°57' E 004°11'0 0.0
2015-May-17 22:32N 51°57' E 004°11'0 0.0
2015-May-17 21:32N 51°57' E 004°11'0 0.0
2015-May-17 20:33N 51°57' E 004°11'0 0.0
2015-May-17 19:32N 51°57' E 004°11'0 0.0
2015-May-17 18:33N 51°57' E 004°11'0 0.0
2015-May-17 17:32N 51°57' E 004°11'0 0.0
2015-May-17 16:32N 51°57' E 004°11'0 0.0
2015-May-17 15:32N 51°57' E 004°11'0 0.0
2015-May-17 14:32N 51°57' E 004°11'0 0.0
2015-May-17 13:32N 51°57' E 004°11'0 0.0
2015-May-17 12:32N 51°57' E 004°11'0 0.0
2015-May-17 11:32N 51°57' E 004°11'0 0.0
2015-May-17 10:32N 51°57' E 004°11'0 0.0
2015-May-17 09:32N 51°57' E 004°11'0 0.0
2015-May-17 08:29N 51°57' E 004°11'0 0.0
2015-May-17 07:32N 51°57' E 004°11'0 0.0
2015-May-17 06:32N 51°57' E 004°11'0 0.0
2015-May-17 05:32N 51°57' E 004°11'0 0.0
2015-May-17 04:29N 51°57' E 004°11'0 0.0
2015-May-17 03:32N 51°57' E 004°11'0 0.0
2015-May-17 02:32N 51°57' E 004°11'0 0.0
2015-May-17 01:32N 51°57' E 004°11'  

Dump ship's entire track history